createdAt,value
2022-12-31T00:02:24.936Z,24.60
2022-12-31T00:04:57.137Z,28.90
2022-12-31T00:07:28.731Z,25.20
2022-12-31T00:09:59.422Z,24.20
2022-12-31T00:12:30.360Z,23.20
2022-12-31T00:15:01.064Z,25.90
2022-12-31T00:17:32.293Z,24.40
2022-12-31T00:20:03.023Z,25.40
2022-12-31T00:22:33.767Z,28.70
2022-12-31T00:25:05.707Z,29.70
2022-12-31T00:27:36.447Z,24.70
2022-12-31T00:30:08.734Z,24.30
2022-12-31T00:32:39.434Z,23.30
2022-12-31T00:35:11.021Z,26.60
2022-12-31T00:37:41.817Z,24.00
2022-12-31T00:40:14.614Z,27.50
2022-12-31T00:42:45.435Z,26.80
2022-12-31T00:45:16.215Z,24.90
2022-12-31T00:47:47.033Z,26.00
2022-12-31T00:50:17.871Z,25.40
2022-12-31T00:52:48.577Z,22.80
2022-12-31T00:55:19.758Z,23.70
2022-12-31T00:57:50.460Z,22.80
2022-12-31T01:00:21.713Z,28.20
2022-12-31T01:02:52.832Z,29.00
2022-12-31T01:05:23.689Z,28.40
2022-12-31T01:07:54.425Z,24.60
2022-12-31T01:10:39.027Z,25.20
2022-12-31T01:13:09.840Z,24.10
2022-12-31T01:15:41.545Z,24.20
2022-12-31T01:18:12.331Z,24.90
2022-12-31T01:20:44.922Z,21.20
2022-12-31T01:23:15.543Z,26.80
2022-12-31T01:25:46.243Z,26.40
2022-12-31T01:28:17.007Z,26.00
2022-12-31T01:30:47.901Z,24.00
2022-12-31T01:33:18.575Z,23.30
2022-12-31T01:35:49.311Z,24.40
2022-12-31T01:38:20.171Z,21.20
2022-12-31T01:40:50.810Z,23.30
2022-12-31T01:43:22.345Z,22.80
2022-12-31T01:45:55.688Z,23.20
2022-12-31T01:48:28.656Z,24.70
2022-12-31T01:50:59.326Z,21.40
2022-12-31T01:53:30.219Z,22.20
2022-12-31T01:56:02.064Z,19.00
2022-12-31T01:58:37.912Z,22.00
2022-12-31T02:01:11.157Z,22.30
2022-12-31T02:03:42.867Z,15.30
2022-12-31T02:06:19.757Z,23.30
2022-12-31T02:08:51.304Z,22.90
2022-12-31T02:11:28.590Z,19.30
2022-12-31T02:14:02.514Z,20.60
2022-12-31T02:16:41.462Z,20.40
2022-12-31T02:19:37.882Z,15.80
2022-12-31T02:22:19.355Z,19.00
2022-12-31T02:25:18.163Z,17.70
2022-12-31T02:28:02.026Z,18.60
2022-12-31T02:30:34.495Z,20.60
2022-12-31T02:33:14.768Z,20.90
2022-12-31T02:35:55.073Z,19.40
2022-12-31T02:38:31.380Z,17.50
2022-12-31T02:41:02.916Z,17.90
2022-12-31T02:43:33.643Z,17.90
2022-12-31T02:46:17.654Z,15.80
2022-12-31T02:48:56.002Z,18.40
2022-12-31T02:51:38.329Z,18.00
2022-12-31T02:54:20.982Z,18.80
2022-12-31T02:57:02.000Z,18.40
2022-12-31T02:59:56.452Z,16.90
2022-12-31T03:02:32.091Z,17.60
2022-12-31T03:05:04.936Z,16.60
2022-12-31T03:07:35.880Z,15.50
2022-12-31T03:10:07.669Z,15.00
2022-12-31T03:12:48.470Z,18.20
2022-12-31T03:15:21.936Z,17.50
2022-12-31T03:18:01.975Z,17.40
2022-12-31T03:20:53.433Z,16.30
2022-12-31T03:23:26.939Z,15.00
2022-12-31T03:25:58.639Z,15.30
2022-12-31T03:28:31.520Z,15.70
2022-12-31T03:31:04.445Z,13.90
2022-12-31T03:33:37.255Z,15.50
2022-12-31T03:36:14.468Z,14.20
2022-12-31T03:38:48.557Z,16.40
2022-12-31T03:41:23.444Z,14.60
2022-12-31T03:43:54.168Z,14.60
2022-12-31T03:46:24.971Z,14.90
2022-12-31T03:48:55.678Z,14.30
2022-12-31T03:51:26.404Z,13.20
2022-12-31T03:53:57.086Z,13.40
2022-12-31T03:56:27.934Z,14.50
2022-12-31T03:58:58.676Z,14.60
2022-12-31T04:01:29.477Z,12.50
2022-12-31T04:04:00.243Z,14.30
2022-12-31T04:06:31.017Z,13.20
2022-12-31T04:09:01.725Z,13.80
2022-12-31T04:11:32.557Z,12.40
2022-12-31T04:14:04.565Z,13.20
2022-12-31T04:16:35.722Z,13.60
2022-12-31T04:19:07.020Z,12.80
2022-12-31T04:21:37.773Z,13.60
2022-12-31T04:24:09.529Z,12.10
2022-12-31T04:26:40.872Z,12.40
2022-12-31T04:29:12.024Z,13.40
2022-12-31T04:31:42.647Z,13.60
2022-12-31T04:34:13.461Z,13.80
2022-12-31T04:36:44.318Z,13.60
2022-12-31T04:39:15.016Z,13.10
2022-12-31T04:41:45.669Z,13.80
2022-12-31T04:44:16.576Z,12.70
2022-12-31T04:46:47.286Z,13.50
2022-12-31T04:49:18.116Z,13.60
2022-12-31T04:51:48.836Z,12.80
2022-12-31T04:54:19.610Z,12.80
2022-12-31T04:56:50.409Z,13.20
2022-12-31T04:59:21.249Z,14.50
2022-12-31T05:01:52.014Z,13.20
2022-12-31T05:04:22.765Z,14.10
2022-12-31T05:06:53.392Z,13.50
2022-12-31T05:09:24.288Z,12.40
2022-12-31T05:11:55.026Z,12.40
2022-12-31T05:14:25.993Z,13.70
2022-12-31T05:16:58.793Z,14.30
2022-12-31T05:19:29.611Z,15.00
2022-12-31T05:22:18.331Z,14.30
2022-12-31T05:24:51.976Z,14.10
2022-12-31T05:27:23.301Z,13.90
2022-12-31T05:29:54.061Z,13.20
2022-12-31T05:32:24.716Z,14.30
2022-12-31T05:34:55.419Z,14.80
2022-12-31T05:37:26.582Z,14.60
2022-12-31T05:39:57.590Z,14.00
2022-12-31T05:42:29.623Z,18.50
2022-12-31T05:45:00.372Z,16.30
2022-12-31T05:47:31.112Z,14.90
2022-12-31T05:50:01.858Z,14.00
2022-12-31T05:52:32.549Z,13.20
2022-12-31T05:55:03.698Z,13.30
2022-12-31T05:57:34.477Z,11.70
2022-12-31T06:00:06.593Z,14.00
2022-12-31T06:02:44.506Z,12.80
2022-12-31T06:05:15.257Z,13.20
2022-12-31T06:07:46.002Z,14.20
2022-12-31T06:10:16.671Z,13.50
2022-12-31T06:12:47.383Z,14.20
2022-12-31T06:15:18.189Z,13.80
2022-12-31T06:17:48.930Z,13.80
2022-12-31T06:20:20.556Z,14.20
2022-12-31T06:22:51.392Z,13.60
2022-12-31T06:25:22.521Z,13.10
2022-12-31T06:27:53.256Z,11.70
2022-12-31T06:30:23.956Z,12.20
2022-12-31T06:32:55.569Z,13.40
2022-12-31T06:35:26.375Z,12.90
2022-12-31T06:37:57.065Z,12.70
2022-12-31T06:40:27.855Z,12.60
2022-12-31T06:43:00.316Z,12.50
2022-12-31T06:45:31.203Z,11.50
2022-12-31T06:48:01.900Z,14.40
2022-12-31T06:50:32.614Z,14.20
2022-12-31T06:53:03.579Z,11.40
2022-12-31T06:55:35.775Z,13.20
2022-12-31T06:58:07.957Z,12.80
2022-12-31T07:00:39.575Z,12.00
2022-12-31T07:03:24.326Z,12.10
2022-12-31T07:05:59.658Z,10.40
2022-12-31T07:08:45.087Z,11.90
2022-12-31T07:11:21.739Z,11.80
2022-12-31T07:14:11.044Z,11.20
2022-12-31T07:16:56.671Z,11.40
2022-12-31T07:22:03.720Z,16.50
2022-12-31T07:24:36.317Z,13.70
2022-12-31T07:27:33.716Z,11.00
2022-12-31T07:30:10.878Z,9.80
2022-12-31T07:33:01.780Z,10.70
2022-12-31T07:35:43.152Z,10.70
2022-12-31T07:38:25.984Z,9.50
2022-12-31T07:41:09.812Z,10.10
2022-12-31T07:43:58.584Z,10.20
2022-12-31T07:46:36.814Z,10.20
2022-12-31T07:49:11.586Z,10.30
2022-12-31T07:51:46.516Z,11.00
2022-12-31T07:54:18.400Z,10.60
2022-12-31T07:56:50.579Z,10.40
2022-12-31T07:59:33.764Z,9.50
2022-12-31T08:02:14.719Z,9.70
2022-12-31T08:04:55.615Z,8.60
2022-12-31T08:07:36.882Z,9.50
2022-12-31T08:10:17.986Z,9.90
2022-12-31T08:12:54.257Z,9.00
2022-12-31T08:15:30.288Z,9.90
2022-12-31T08:18:02.614Z,9.00
2022-12-31T08:20:37.642Z,9.00
2022-12-31T08:23:20.040Z,8.90
2022-12-31T08:26:06.053Z,8.50
2022-12-31T08:28:54.989Z,7.80
2022-12-31T08:31:34.935Z,9.60
2022-12-31T08:34:15.344Z,8.40
2022-12-31T08:36:54.423Z,8.90
2022-12-31T08:39:34.158Z,9.10
2022-12-31T08:42:09.703Z,8.60
2022-12-31T08:44:46.211Z,16.70
2022-12-31T08:47:27.421Z,9.70
2022-12-31T08:49:59.093Z,8.90
2022-12-31T08:52:30.767Z,7.90
2022-12-31T08:55:02.798Z,7.90
2022-12-31T08:57:42.035Z,7.70
2022-12-31T09:00:16.824Z,8.40
2022-12-31T09:03:06.934Z,7.40
2022-12-31T09:05:54.139Z,7.70
2022-12-31T09:08:35.359Z,7.60
2022-12-31T09:11:17.689Z,9.00
2022-12-31T09:14:09.548Z,7.10
2022-12-31T09:16:49.474Z,7.40
2022-12-31T09:19:20.293Z,7.20
2022-12-31T09:21:51.735Z,6.20
2022-12-31T09:24:23.240Z,7.20
2022-12-31T09:27:05.817Z,7.50
2022-12-31T09:29:55.715Z,6.90
2022-12-31T09:32:40.462Z,7.00
2022-12-31T09:35:20.571Z,7.20
2022-12-31T09:37:56.350Z,6.60
2022-12-31T09:40:55.297Z,6.10
2022-12-31T09:44:01.381Z,7.80
2022-12-31T09:49:48.371Z,6.40
2022-12-31T09:52:26.173Z,6.40
2022-12-31T09:55:14.456Z,5.60
2022-12-31T09:57:57.749Z,5.50
2022-12-31T10:00:38.061Z,6.10
2022-12-31T10:03:24.327Z,7.10
2022-12-31T10:06:06.366Z,6.50
2022-12-31T10:08:50.967Z,5.90
2022-12-31T10:11:30.935Z,5.90
2022-12-31T10:14:18.440Z,5.80
2022-12-31T10:17:09.639Z,6.00
2022-12-31T10:20:07.100Z,6.40
2022-12-31T10:23:05.696Z,6.00
2022-12-31T10:26:05.900Z,6.30
2022-12-31T10:28:47.997Z,5.80
2022-12-31T10:31:38.168Z,5.90
2022-12-31T10:34:17.521Z,5.20
2022-12-31T10:36:56.352Z,5.70
2022-12-31T10:39:39.197Z,5.60
2022-12-31T10:42:32.562Z,5.80
2022-12-31T10:45:30.228Z,5.10
2022-12-31T10:48:45.861Z,4.80
2022-12-31T10:52:10.771Z,6.00
2022-12-31T10:55:09.551Z,5.20
2022-12-31T10:58:32.157Z,4.90
2022-12-31T11:01:13.800Z,5.20
2022-12-31T11:04:21.039Z,5.10
2022-12-31T11:07:33.861Z,4.60
2022-12-31T11:10:38.569Z,5.00
2022-12-31T11:13:44.995Z,5.70
2022-12-31T11:16:45.398Z,5.00
2022-12-31T11:19:23.681Z,5.30
2022-12-31T11:22:04.874Z,4.20
2022-12-31T11:24:48.118Z,5.40
2022-12-31T11:27:34.342Z,4.80
2022-12-31T11:30:28.668Z,5.10
2022-12-31T11:33:18.809Z,5.10
2022-12-31T11:36:05.865Z,5.00
2022-12-31T11:38:43.484Z,5.70
2022-12-31T11:41:24.177Z,4.70
2022-12-31T11:44:04.274Z,4.60
2022-12-31T11:46:59.884Z,5.30
2022-12-31T11:49:41.533Z,5.80
2022-12-31T11:52:34.552Z,5.50
2022-12-31T11:55:29.698Z,5.40
2022-12-31T11:58:12.659Z,5.40
2022-12-31T12:00:53.227Z,5.10
2022-12-31T12:03:25.203Z,5.00
2022-12-31T12:05:57.285Z,6.00
2022-12-31T12:08:32.615Z,5.70
2022-12-31T12:11:08.514Z,4.90
2022-12-31T12:13:39.321Z,5.10
2022-12-31T12:16:11.192Z,5.20
2022-12-31T12:18:48.914Z,4.70
2022-12-31T12:21:23.335Z,4.90
2022-12-31T12:24:00.149Z,5.20
2022-12-31T12:26:38.420Z,4.40
2022-12-31T12:29:17.432Z,4.80
2022-12-31T12:31:59.882Z,4.50
2022-12-31T12:34:33.091Z,4.70
2022-12-31T12:37:04.974Z,4.70
2022-12-31T12:39:37.089Z,4.10
2022-12-31T12:42:13.718Z,4.80
2022-12-31T12:44:44.542Z,4.10
2022-12-31T12:47:19.599Z,5.30
2022-12-31T12:49:55.273Z,5.40
2022-12-31T12:52:42.894Z,4.40
2022-12-31T12:55:22.367Z,4.90
2022-12-31T12:58:01.436Z,5.00
2022-12-31T13:00:39.256Z,5.30
2022-12-31T13:04:07.244Z,5.20
2022-12-31T13:06:44.543Z,4.30
2022-12-31T13:09:33.253Z,5.50
2022-12-31T13:12:13.570Z,4.30
2022-12-31T13:14:52.667Z,6.10
2022-12-31T13:18:01.233Z,6.10
2022-12-31T13:20:42.902Z,4.30
